This is the latest recevied weather packets stored in our database for station/object N9XRG. If no packets are shown the sender has not sent any weather packets the latest 10 day(s).
| Time | Temp. | Humidity | Pressure | Rain* | Wind** | Luminosity | Snow |
|---|---|---|---|---|---|---|---|
| 1777670082 | 10.56° C | 55% | 1015.1 hPa | 0 mm | - | 314 W/m² | - |
| 1777669779 | 10.56° C | 54% | 1015.2 hPa | 0 mm | - | 237 W/m² | - |
| 1777669476 | 10.56° C | 53% | 1015.1 hPa | 0 mm | - | 224 W/m² | - |
| 1777669172 | 10.56° C | 55% | 1015.2 hPa | 0 mm | - | 231 W/m² | - |
| 1777668869 | 10.56° C | 53% | 1015.2 hPa | 0 mm | - | 260 W/m² | - |
| 1777668566 | 10.56° C | 53% | 1015.3 hPa | 0 mm | - | 219 W/m² | - |
| 1777668262 | 10.56° C | 54% | 1015.1 hPa | 0 mm | - | 207 W/m² | - |
| 1777667958 | 11.11° C | 52% | 1015.1 hPa | 0 mm | - | 236 W/m² | - |
| 1777667655 | 11.11° C | 49% | 1015.3 hPa | 0 mm | - | 245 W/m² | - |
| 1777667353 | 11.11° C | 53% | 1015.1 hPa | 0 mm | - | 336 W/m² | - |
| 1777667050 | 10.56° C | 54% | 1015.1 hPa | 0 mm | - | 380 W/m² | - |
| 1777666746 | 10.56° C | 55% | 1015.1 hPa | 0 mm | - | 288 W/m² | - |
| 1777666443 | 10° C | 56% | 1015 hPa | 0 mm | - | 149 W/m² | - |
| 1777666140 | 10.56° C | 54% | 1014.9 hPa | 0 mm | - | 56 W/m² | - |
| 1777665837 | 11.11° C | 56% | 1015 hPa | 0 mm | - | 92 W/m² | - |
| 1777665535 | 11.67° C | 52% | 1014.8 hPa | 0 mm | - | 126 W/m² | - |
| 1777665230 | 12.22° C | 49% | 1014.8 hPa | 0 mm | - | 238 W/m² | - |
| 1777664927 | 11.67° C | 51% | 1014.8 hPa | 0 mm | - | 348 W/m² | - |
| 1777664623 | 12.22° C | 51% | 1014.9 hPa | 0 mm | - | 288 W/m² | - |
| 1777664319 | 12.22° C | 50% | 1014.5 hPa | 0 mm | - | 443 W/m² | - |
| 1777664018 | 11.11° C | 55% | 1014.7 hPa | 0 mm | - | 1043 W/m² | - |
| 1777663715 | 11.11° C | 51% | 1014.8 hPa | 0 mm | - | 256 W/m² | - |
| 1777663412 | 10.56° C | 55% | 1014.8 hPa | 0 mm | - | 290 W/m² | - |
| 1777663109 | 11.11° C | 54% | 1014.9 hPa | 0 mm | - | 193 W/m² | - |
| 1777662806 | 11.67° C | 57% | 1015 hPa | 0 mm | - | 237 W/m² | - |
* Rain latest hour (hover to see other rain measurements)
** Current wind speed in m/s (hover to see current wind gust speed)